sensor_id;sensor_type;location;lat;lon;timestamp;P1;durP1;ratioP1;P2;durP2;ratioP2
41627;SDS011;27321;50.816;6.054;2023-02-18T00:02:36;5.30;;;4.67;;
41627;SDS011;27321;50.816;6.054;2023-02-18T00:05:37;6.13;;;4.32;;
41627;SDS011;27321;50.816;6.054;2023-02-18T00:08:39;4.88;;;4.38;;
41627;SDS011;27321;50.816;6.054;2023-02-18T00:11:42;4.50;;;3.97;;
41627;SDS011;27321;50.816;6.054;2023-02-18T00:14:43;5.03;;;4.38;;
41627;SDS011;27321;50.816;6.054;2023-02-18T00:17:45;4.82;;;3.92;;
41627;SDS011;27321;50.816;6.054;2023-02-18T00:20:45;5.28;;;4.40;;
41627;SDS011;27321;50.816;6.054;2023-02-18T00:23:46;5.00;;;4.38;;
41627;SDS011;27321;50.816;6.054;2023-02-18T00:26:49;5.53;;;4.60;;
41627;SDS011;27321;50.816;6.054;2023-02-18T00:29:52;6.17;;;4.87;;
41627;SDS011;27321;50.816;6.054;2023-02-18T00:32:53;5.10;;;4.13;;
41627;SDS011;27321;50.816;6.054;2023-02-18T00:35:59;5.68;;;3.95;;
41627;SDS011;27321;50.816;6.054;2023-02-18T00:39:07;5.10;;;4.50;;
41627;SDS011;27321;50.816;6.054;2023-02-18T00:42:10;4.20;;;3.80;;
41627;SDS011;27321;50.816;6.054;2023-02-18T00:45:12;5.18;;;4.00;;
41627;SDS011;27321;50.816;6.054;2023-02-18T00:48:13;5.55;;;4.22;;
41627;SDS011;27321;50.816;6.054;2023-02-18T00:54:16;6.70;;;3.92;;
41627;SDS011;27321;50.816;6.054;2023-02-18T00:57:17;5.13;;;4.07;;
41627;SDS011;27321;50.816;6.054;2023-02-18T01:00:19;4.85;;;3.90;;
41627;SDS011;27321;50.816;6.054;2023-02-18T01:03:20;5.17;;;3.83;;
41627;SDS011;27321;50.816;6.054;2023-02-18T01:06:23;5.30;;;4.07;;
41627;SDS011;27321;50.816;6.054;2023-02-18T01:09:24;5.88;;;4.85;;
41627;SDS011;27321;50.816;6.054;2023-02-18T01:12:25;5.93;;;5.15;;
41627;SDS011;27321;50.816;6.054;2023-02-18T01:15:28;6.23;;;5.17;;
41627;SDS011;27321;50.816;6.054;2023-02-18T01:18:29;6.57;;;5.38;;
41627;SDS011;27321;50.816;6.054;2023-02-18T01:21:30;6.78;;;5.68;;
41627;SDS011;27321;50.816;6.054;2023-02-18T01:24:31;8.65;;;6.80;;
41627;SDS011;27321;50.816;6.054;2023-02-18T01:27:33;8.63;;;7.13;;
41627;SDS011;27321;50.816;6.054;2023-02-18T01:30:35;11.07;;;8.93;;
41627;SDS011;27321;50.816;6.054;2023-02-18T01:33:38;11.60;;;9.77;;
41627;SDS011;27321;50.816;6.054;2023-02-18T01:36:39;13.57;;;11.13;;
41627;SDS011;27321;50.816;6.054;2023-02-18T01:39:40;12.97;;;10.37;;
41627;SDS011;27321;50.816;6.054;2023-02-18T01:42:41;13.90;;;10.20;;
41627;SDS011;27321;50.816;6.054;2023-02-18T01:45:58;10.40;;;8.10;;
41627;SDS011;27321;50.816;6.054;2023-02-18T01:49:04;11.00;;;8.50;;
41627;SDS011;27321;50.816;6.054;2023-02-18T01:55:21;9.60;;;7.80;;
41627;SDS011;27321;50.816;6.054;2023-02-18T01:58:31;10.37;;;7.77;;
41627;SDS011;27321;50.816;6.054;2023-02-18T02:01:40;7.07;;;5.87;;
41627;SDS011;27321;50.816;6.054;2023-02-18T02:04:44;6.23;;;5.53;;
41627;SDS011;27321;50.816;6.054;2023-02-18T02:07:46;6.95;;;4.60;;
41627;SDS011;27321;50.816;6.054;2023-02-18T02:11:06;5.83;;;4.50;;
41627;SDS011;27321;50.816;6.054;2023-02-18T02:14:25;4.73;;;3.93;;
41627;SDS011;27321;50.816;6.054;2023-02-18T02:17:42;5.30;;;4.00;;
41627;SDS011;27321;50.816;6.054;2023-02-18T02:35:24;3.67;;;2.97;;
41627;SDS011;27321;50.816;6.054;2023-02-18T02:38:33;2.85;;;2.42;;
41627;SDS011;27321;50.816;6.054;2023-02-18T02:42:08;2.63;;;2.43;;
41627;SDS011;27321;50.816;6.054;2023-02-18T02:52:37;2.17;;;1.70;;
41627;SDS011;27321;50.816;6.054;2023-02-18T02:55:46;2.37;;;1.67;;
41627;SDS011;27321;50.816;6.054;2023-02-18T02:59:02;1.60;;;1.50;;
41627;SDS011;27321;50.816;6.054;2023-02-18T03:19:54;1.30;;;0.90;;
41627;SDS011;27321;50.816;6.054;2023-02-18T03:23:07;0.60;;;0.60;;
41627;SDS011;27321;50.816;6.054;2023-02-18T03:26:16;1.17;;;0.93;;
41627;SDS011;27321;50.816;6.054;2023-02-18T03:29:19;1.27;;;1.03;;
41627;SDS011;27321;50.816;6.054;2023-02-18T03:32:23;1.00;;;1.00;;
41627;SDS011;27321;50.816;6.054;2023-02-18T03:35:26;1.80;;;1.37;;
41627;SDS011;27321;50.816;6.054;2023-02-18T03:41:44;1.40;;;1.27;;
41627;SDS011;27321;50.816;6.054;2023-02-18T03:44:46;1.67;;;1.27;;
41627;SDS011;27321;50.816;6.054;2023-02-18T03:47:47;1.60;;;1.50;;
41627;SDS011;27321;50.816;6.054;2023-02-18T03:50:49;1.77;;;1.20;;
41627;SDS011;27321;50.816;6.054;2023-02-18T03:53:50;2.20;;;1.77;;
41627;SDS011;27321;50.816;6.054;2023-02-18T03:56:51;1.25;;;1.15;;
41627;SDS011;27321;50.816;6.054;2023-02-18T03:59:52;1.38;;;1.25;;
41627;SDS011;27321;50.816;6.054;2023-02-18T04:02:53;3.05;;;1.90;;
41627;SDS011;27321;50.816;6.054;2023-02-18T04:05:54;2.28;;;2.05;;
41627;SDS011;27321;50.816;6.054;2023-02-18T04:08:56;2.30;;;1.88;;
41627;SDS011;27321;50.816;6.054;2023-02-18T04:11:57;2.67;;;2.00;;
41627;SDS011;27321;50.816;6.054;2023-02-18T04:14:58;2.30;;;2.10;;
41627;SDS011;27321;50.816;6.054;2023-02-18T04:17:59;1.63;;;1.50;;
41627;SDS011;27321;50.816;6.054;2023-02-18T04:21:00;1.73;;;1.63;;
41627;SDS011;27321;50.816;6.054;2023-02-18T04:24:05;1.75;;;1.55;;
41627;SDS011;27321;50.816;6.054;2023-02-18T04:27:06;2.27;;;1.90;;
41627;SDS011;27321;50.816;6.054;2023-02-18T04:30:07;2.25;;;1.85;;
41627;SDS011;27321;50.816;6.054;2023-02-18T04:33:09;1.75;;;1.65;;
41627;SDS011;27321;50.816;6.054;2023-02-18T04:36:10;1.92;;;1.83;;
41627;SDS011;27321;50.816;6.054;2023-02-18T04:39:11;1.70;;;1.60;;
41627;SDS011;27321;50.816;6.054;2023-02-18T04:42:12;2.05;;;1.85;;
41627;SDS011;27321;50.816;6.054;2023-02-18T04:48:15;1.37;;;1.27;;
41627;SDS011;27321;50.816;6.054;2023-02-18T04:51:16;2.03;;;1.70;;
41627;SDS011;27321;50.816;6.054;2023-02-18T04:54:17;1.70;;;1.60;;
41627;SDS011;27321;50.816;6.054;2023-02-18T04:57:18;1.42;;;1.30;;
41627;SDS011;27321;50.816;6.054;2023-02-18T05:00:19;1.83;;;1.63;;
41627;SDS011;27321;50.816;6.054;2023-02-18T05:03:20;1.60;;;1.48;;
41627;SDS011;27321;50.816;6.054;2023-02-18T05:06:21;1.48;;;1.38;;
41627;SDS011;27321;50.816;6.054;2023-02-18T05:09:22;1.60;;;1.30;;
41627;SDS011;27321;50.816;6.054;2023-02-18T05:12:23;1.20;;;1.10;;
41627;SDS011;27321;50.816;6.054;2023-02-18T05:15:25;1.20;;;1.10;;
41627;SDS011;27321;50.816;6.054;2023-02-18T05:18:27;1.08;;;0.98;;
41627;SDS011;27321;50.816;6.054;2023-02-18T05:21:28;0.90;;;0.90;;
41627;SDS011;27321;50.816;6.054;2023-02-18T05:24:29;0.82;;;0.82;;
41627;SDS011;27321;50.816;6.054;2023-02-18T05:27:30;0.93;;;0.90;;
41627;SDS011;27321;50.816;6.054;2023-02-18T05:30:31;0.73;;;0.73;;
41627;SDS011;27321;50.816;6.054;2023-02-18T05:33:32;0.80;;;0.75;;
41627;SDS011;27321;50.816;6.054;2023-02-18T05:36:33;2.17;;;0.70;;
41627;SDS011;27321;50.816;6.054;2023-02-18T05:39:34;0.60;;;0.60;;
41627;SDS011;27321;50.816;6.054;2023-02-18T05:42:35;0.40;;;0.40;;
41627;SDS011;27321;50.816;6.054;2023-02-18T05:45:36;1.53;;;0.40;;
41627;SDS011;27321;50.816;6.054;2023-02-18T05:48:37;0.50;;;0.50;;
41627;SDS011;27321;50.816;6.054;2023-02-18T05:51:38;0.80;;;0.80;;
41627;SDS011;27321;50.816;6.054;2023-02-18T05:54:39;0.70;;;0.70;;
41627;SDS011;27321;50.816;6.054;2023-02-18T05:57:40;0.50;;;0.50;;
41627;SDS011;27321;50.816;6.054;2023-02-18T06:00:41;0.35;;;0.35;;
41627;SDS011;27321;50.816;6.054;2023-02-18T06:03:42;0.50;;;0.50;;
41627;SDS011;27321;50.816;6.054;2023-02-18T06:06:43;0.55;;;0.55;;
41627;SDS011;27321;50.816;6.054;2023-02-18T06:09:45;0.88;;;0.60;;
41627;SDS011;27321;50.816;6.054;2023-02-18T06:12:46;0.43;;;0.43;;
41627;SDS011;27321;50.816;6.054;2023-02-18T06:15:49;0.40;;;0.40;;
41627;SDS011;27321;50.816;6.054;2023-02-18T06:18:51;0.50;;;0.50;;
41627;SDS011;27321;50.816;6.054;2023-02-18T06:21:52;0.50;;;0.50;;
41627;SDS011;27321;50.816;6.054;2023-02-18T06:24:53;2.28;;;0.70;;
41627;SDS011;27321;50.816;6.054;2023-02-18T06:27:54;0.60;;;0.60;;
41627;SDS011;27321;50.816;6.054;2023-02-18T06:30:55;0.67;;;0.50;;
41627;SDS011;27321;50.816;6.054;2023-02-18T06:33:56;0.50;;;0.50;;
41627;SDS011;27321;50.816;6.054;2023-02-18T06:36:57;0.80;;;0.73;;
41627;SDS011;27321;50.816;6.054;2023-02-18T06:39:57;0.70;;;0.70;;
41627;SDS011;27321;50.816;6.054;2023-02-18T06:42:58;1.83;;;1.00;;
41627;SDS011;27321;50.816;6.054;2023-02-18T06:45:59;0.60;;;0.60;;
41627;SDS011;27321;50.816;6.054;2023-02-18T06:49:01;0.70;;;0.70;;
41627;SDS011;27321;50.816;6.054;2023-02-18T06:52:03;2.33;;;0.90;;
41627;SDS011;27321;50.816;6.054;2023-02-18T06:58:08;0.87;;;0.60;;
41627;SDS011;27321;50.816;6.054;2023-02-18T07:01:10;1.70;;;0.70;;
41627;SDS011;27321;50.816;6.054;2023-02-18T07:04:11;0.73;;;0.60;;
41627;SDS011;27321;50.816;6.054;2023-02-18T07:07:12;0.80;;;0.80;;
41627;SDS011;27321;50.816;6.054;2023-02-18T07:10:13;2.70;;;0.80;;
41627;SDS011;27321;50.816;6.054;2023-02-18T07:13:14;0.77;;;0.77;;
41627;SDS011;27321;50.816;6.054;2023-02-18T07:19:18;0.77;;;0.77;;
41627;SDS011;27321;50.816;6.054;2023-02-18T07:22:20;1.70;;;0.88;;
41627;SDS011;27321;50.816;6.054;2023-02-18T07:25:22;2.13;;;1.00;;
41627;SDS011;27321;50.816;6.054;2023-02-18T07:28:23;3.72;;;1.20;;
41627;SDS011;27321;50.816;6.054;2023-02-18T07:31:25;4.57;;;1.48;;
41627;SDS011;27321;50.816;6.054;2023-02-18T07:34:26;1.55;;;1.00;;
41627;SDS011;27321;50.816;6.054;2023-02-18T07:37:27;3.17;;;1.33;;
41627;SDS011;27321;50.816;6.054;2023-02-18T07:40:28;3.13;;;1.60;;
41627;SDS011;27321;50.816;6.054;2023-02-18T07:43:29;5.40;;;2.00;;
41627;SDS011;27321;50.816;6.054;2023-02-18T07:46:30;4.35;;;1.85;;
41627;SDS011;27321;50.816;6.054;2023-02-18T07:49:32;4.13;;;1.98;;
41627;SDS011;27321;50.816;6.054;2023-02-18T07:52:33;2.83;;;2.00;;
41627;SDS011;27321;50.816;6.054;2023-02-18T07:55:35;3.97;;;1.40;;
41627;SDS011;27321;50.816;6.054;2023-02-18T07:58:48;7.30;;;1.77;;
41627;SDS011;27321;50.816;6.054;2023-02-18T08:01:52;5.27;;;2.00;;
41627;SDS011;27321;50.816;6.054;2023-02-18T08:04:53;5.82;;;1.70;;
41627;SDS011;27321;50.816;6.054;2023-02-18T08:07:54;7.00;;;1.80;;
41627;SDS011;27321;50.816;6.054;2023-02-18T08:10:56;3.85;;;1.77;;
41627;SDS011;27321;50.816;6.054;2023-02-18T08:14:06;2.60;;;1.50;;
41627;SDS011;27321;50.816;6.054;2023-02-18T08:17:07;4.57;;;1.83;;
41627;SDS011;27321;50.816;6.054;2023-02-18T08:20:08;5.47;;;1.67;;
41627;SDS011;27321;50.816;6.054;2023-02-18T08:23:10;4.93;;;1.75;;
41627;SDS011;27321;50.816;6.054;2023-02-18T08:26:11;4.57;;;1.90;;
41627;SDS011;27321;50.816;6.054;2023-02-18T08:29:15;4.70;;;1.53;;
41627;SDS011;27321;50.816;6.054;2023-02-18T08:32:16;5.27;;;1.80;;
41627;SDS011;27321;50.816;6.054;2023-02-18T08:35:17;3.60;;;1.55;;
41627;SDS011;27321;50.816;6.054;2023-02-18T08:38:19;3.28;;;1.40;;
41627;SDS011;27321;50.816;6.054;2023-02-18T08:41:21;4.53;;;1.67;;
41627;SDS011;27321;50.816;6.054;2023-02-18T08:44:23;7.50;;;1.45;;
41627;SDS011;27321;50.816;6.054;2023-02-18T08:47:24;5.43;;;1.55;;
41627;SDS011;27321;50.816;6.054;2023-02-18T08:50:26;5.78;;;1.90;;
41627;SDS011;27321;50.816;6.054;2023-02-18T08:53:27;3.63;;;1.53;;
41627;SDS011;27321;50.816;6.054;2023-02-18T08:56:28;3.40;;;1.30;;
41627;SDS011;27321;50.816;6.054;2023-02-18T08:59:30;3.73;;;1.60;;
41627;SDS011;27321;50.816;6.054;2023-02-18T09:02:31;4.70;;;1.55;;
41627;SDS011;27321;50.816;6.054;2023-02-18T09:05:33;5.97;;;1.50;;
41627;SDS011;27321;50.816;6.054;2023-02-18T09:08:34;3.50;;;1.17;;
41627;SDS011;27321;50.816;6.054;2023-02-18T09:11:35;4.00;;;1.33;;
41627;SDS011;27321;50.816;6.054;2023-02-18T09:14:37;5.32;;;1.35;;
41627;SDS011;27321;50.816;6.054;2023-02-18T09:17:38;4.13;;;1.57;;
41627;SDS011;27321;50.816;6.054;2023-02-18T09:20:42;4.57;;;1.60;;
41627;SDS011;27321;50.816;6.054;2023-02-18T09:23:44;5.40;;;2.03;;
41627;SDS011;27321;50.816;6.054;2023-02-18T09:26:45;4.67;;;1.43;;
41627;SDS011;27321;50.816;6.054;2023-02-18T09:29:50;6.35;;;1.77;;
41627;SDS011;27321;50.816;6.054;2023-02-18T09:32:53;3.00;;;1.40;;
41627;SDS011;27321;50.816;6.054;2023-02-18T09:35:54;6.27;;;1.70;;
41627;SDS011;27321;50.816;6.054;2023-02-18T09:38:55;5.22;;;1.58;;
41627;SDS011;27321;50.816;6.054;2023-02-18T09:45:07;4.23;;;1.80;;
41627;SDS011;27321;50.816;6.054;2023-02-18T09:48:12;6.43;;;1.57;;
41627;SDS011;27321;50.816;6.054;2023-02-18T09:51:14;7.72;;;2.08;;
41627;SDS011;27321;50.816;6.054;2023-02-18T09:54:16;3.63;;;1.90;;
41627;SDS011;27321;50.816;6.054;2023-02-18T09:57:29;4.93;;;1.70;;
41627;SDS011;27321;50.816;6.054;2023-02-18T10:00:41;5.73;;;1.67;;
41627;SDS011;27321;50.816;6.054;2023-02-18T10:03:47;3.27;;;1.50;;
41627;SDS011;27321;50.816;6.054;2023-02-18T10:06:52;3.08;;;1.60;;
41627;SDS011;27321;50.816;6.054;2023-02-18T10:09:54;4.70;;;2.20;;
41627;SDS011;27321;50.816;6.054;2023-02-18T10:12:58;3.53;;;2.07;;
41627;SDS011;27321;50.816;6.054;2023-02-18T10:16:02;4.15;;;2.20;;
41627;SDS011;27321;50.816;6.054;2023-02-18T10:19:08;6.00;;;2.30;;
41627;SDS011;27321;50.816;6.054;2023-02-18T10:22:31;4.17;;;2.20;;
41627;SDS011;27321;50.816;6.054;2023-02-18T10:25:33;3.53;;;1.80;;
41627;SDS011;27321;50.816;6.054;2023-02-18T10:28:43;2.90;;;1.80;;
41627;SDS011;27321;50.816;6.054;2023-02-18T10:31:48;3.03;;;1.67;;
41627;SDS011;27321;50.816;6.054;2023-02-18T10:35:14;3.37;;;1.50;;
41627;SDS011;27321;50.816;6.054;2023-02-18T10:39:09;3.07;;;1.80;;
41627;SDS011;27321;50.816;6.054;2023-02-18T10:49:26;3.53;;;2.27;;
41627;SDS011;27321;50.816;6.054;2023-02-18T10:52:43;4.27;;;2.10;;
41627;SDS011;27321;50.816;6.054;2023-02-18T10:55:47;3.47;;;2.10;;
41627;SDS011;27321;50.816;6.054;2023-02-18T10:58:49;4.90;;;2.20;;
41627;SDS011;27321;50.816;6.054;2023-02-18T11:01:58;4.23;;;1.73;;
41627;SDS011;27321;50.816;6.054;2023-02-18T11:05:26;3.20;;;1.73;;
41627;SDS011;27321;50.816;6.054;2023-02-18T11:08:38;2.77;;;2.30;;
41627;SDS011;27321;50.816;6.054;2023-02-18T11:11:43;3.93;;;2.20;;
41627;SDS011;27321;50.816;6.054;2023-02-18T11:14:46;2.00;;;1.73;;
41627;SDS011;27321;50.816;6.054;2023-02-18T11:18:51;4.00;;;2.03;;
41627;SDS011;27321;50.816;6.054;2023-02-18T11:21:41;2.27;;;1.77;;
41627;SDS011;27321;50.816;6.054;2023-02-18T11:24:42;2.35;;;1.92;;
41627;SDS011;27321;50.816;6.054;2023-02-18T11:27:49;4.07;;;1.90;;
41627;SDS011;27321;50.816;6.054;2023-02-18T11:30:58;3.17;;;2.03;;
41627;SDS011;27321;50.816;6.054;2023-02-18T11:34:02;3.90;;;1.87;;
41627;SDS011;27321;50.816;6.054;2023-02-18T11:37:22;2.97;;;1.85;;
41627;SDS011;27321;50.816;6.054;2023-02-18T11:40:24;2.93;;;1.70;;
41627;SDS011;27321;50.816;6.054;2023-02-18T11:43:32;2.40;;;2.10;;
41627;SDS011;27321;50.816;6.054;2023-02-18T11:46:34;3.45;;;2.03;;
41627;SDS011;27321;50.816;6.054;2023-02-18T11:49:35;3.33;;;1.97;;
41627;SDS011;27321;50.816;6.054;2023-02-18T11:52:38;3.50;;;2.13;;
41627;SDS011;27321;50.816;6.054;2023-02-18T11:55:52;1.70;;;1.43;;
41627;SDS011;27321;50.816;6.054;2023-02-18T11:58:56;5.57;;;1.83;;
41627;SDS011;27321;50.816;6.054;2023-02-18T12:02:12;3.10;;;1.77;;
41627;SDS011;27321;50.816;6.054;2023-02-18T12:05:37;3.43;;;1.63;;
41627;SDS011;27321;50.816;6.054;2023-02-18T12:08:44;4.45;;;1.90;;
41627;SDS011;27321;50.816;6.054;2023-02-18T12:11:53;4.17;;;1.70;;
41627;SDS011;27321;50.816;6.054;2023-02-18T12:15:07;2.97;;;1.53;;
41627;SDS011;27321;50.816;6.054;2023-02-18T12:18:21;2.00;;;1.60;;
41627;SDS011;27321;50.816;6.054;2023-02-18T12:21:35;2.43;;;1.67;;
41627;SDS011;27321;50.816;6.054;2023-02-18T12:53:18;4.80;;;2.73;;
41627;SDS011;27321;50.816;6.054;2023-02-18T12:56:56;5.93;;;2.70;;
41627;SDS011;27321;50.816;6.054;2023-02-18T13:10:19;3.37;;;1.80;;
41627;SDS011;27321;50.816;6.054;2023-02-18T13:14:03;3.00;;;1.67;;
41627;SDS011;27321;50.816;6.054;2023-02-18T13:17:22;2.10;;;1.70;;
41627;SDS011;27321;50.816;6.054;2023-02-18T13:23:52;4.00;;;2.13;;
41627;SDS011;27321;50.816;6.054;2023-02-18T13:27:05;2.60;;;1.80;;
41627;SDS011;27321;50.816;6.054;2023-02-18T13:30:35;2.33;;;1.70;;
41627;SDS011;27321;50.816;6.054;2023-02-18T13:41:33;1.23;;;1.23;;
41627;SDS011;27321;50.816;6.054;2023-02-18T13:47:46;2.10;;;1.43;;
41627;SDS011;27321;50.816;6.054;2023-02-18T13:50:51;1.75;;;1.15;;
41627;SDS011;27321;50.816;6.054;2023-02-18T13:57:13;2.33;;;1.20;;
41627;SDS011;27321;50.816;6.054;2023-02-18T14:00:23;1.33;;;1.20;;
41627;SDS011;27321;50.816;6.054;2023-02-18T14:07:16;3.10;;;1.23;;
41627;SDS011;27321;50.816;6.054;2023-02-18T14:11:22;3.63;;;1.20;;
41627;SDS011;27321;50.816;6.054;2023-02-18T14:14:14;2.43;;;1.53;;
41627;SDS011;27321;50.816;6.054;2023-02-18T14:17:28;2.43;;;1.37;;
41627;SDS011;27321;50.816;6.054;2023-02-18T14:23:38;2.53;;;2.00;;
41627;SDS011;27321;50.816;6.054;2023-02-18T14:27:05;2.15;;;1.38;;
41627;SDS011;27321;50.816;6.054;2023-02-18T14:33:22;1.60;;;1.50;;
41627;SDS011;27321;50.816;6.054;2023-02-18T14:51:04;2.10;;;1.50;;
41627;SDS011;27321;50.816;6.054;2023-02-18T14:54:10;1.65;;;1.55;;
41627;SDS011;27321;50.816;6.054;2023-02-18T14:57:16;2.00;;;1.73;;
41627;SDS011;27321;50.816;6.054;2023-02-18T15:00:22;1.87;;;1.50;;
41627;SDS011;27321;50.816;6.054;2023-02-18T15:03:25;2.67;;;1.93;;
41627;SDS011;27321;50.816;6.054;2023-02-18T15:09:32;4.80;;;2.00;;
41627;SDS011;27321;50.816;6.054;2023-02-18T15:12:33;1.63;;;1.43;;
41627;SDS011;27321;50.816;6.054;2023-02-18T15:15:34;2.55;;;1.73;;
41627;SDS011;27321;50.816;6.054;2023-02-18T15:18:57;1.50;;;1.40;;
41627;SDS011;27321;50.816;6.054;2023-02-18T15:21:59;1.93;;;1.40;;
41627;SDS011;27321;50.816;6.054;2023-02-18T15:25:00;1.77;;;1.67;;
41627;SDS011;27321;50.816;6.054;2023-02-18T15:28:03;2.23;;;1.67;;
41627;SDS011;27321;50.816;6.054;2023-02-18T15:31:08;2.33;;;2.13;;
41627;SDS011;27321;50.816;6.054;2023-02-18T15:37:28;2.20;;;1.83;;
41627;SDS011;27321;50.816;6.054;2023-02-18T15:40:31;2.00;;;1.80;;
41627;SDS011;27321;50.816;6.054;2023-02-18T15:43:34;2.93;;;2.27;;
41627;SDS011;27321;50.816;6.054;2023-02-18T15:49:37;2.13;;;1.93;;
41627;SDS011;27321;50.816;6.054;2023-02-18T15:52:39;3.50;;;2.40;;
41627;SDS011;27321;50.816;6.054;2023-02-18T15:55:41;4.57;;;3.20;;
41627;SDS011;27321;50.816;6.054;2023-02-18T15:58:46;2.90;;;2.63;;
41627;SDS011;27321;50.816;6.054;2023-02-18T16:01:54;5.50;;;2.80;;
41627;SDS011;27321;50.816;6.054;2023-02-18T16:05:11;4.10;;;2.80;;
41627;SDS011;27321;50.816;6.054;2023-02-18T16:08:24;3.27;;;2.33;;
41627;SDS011;27321;50.816;6.054;2023-02-18T16:11:31;3.67;;;2.77;;
41627;SDS011;27321;50.816;6.054;2023-02-18T16:14:47;2.77;;;2.57;;
41627;SDS011;27321;50.816;6.054;2023-02-18T16:17:52;3.73;;;2.90;;
41627;SDS011;27321;50.816;6.054;2023-02-18T16:21:00;2.97;;;2.67;;
41627;SDS011;27321;50.816;6.054;2023-02-18T16:27:32;3.00;;;2.70;;
41627;SDS011;27321;50.816;6.054;2023-02-18T16:30:36;6.63;;;3.10;;
41627;SDS011;27321;50.816;6.054;2023-02-18T16:33:41;4.53;;;3.23;;
41627;SDS011;27321;50.816;6.054;2023-02-18T16:36:43;3.13;;;2.83;;
41627;SDS011;27321;50.816;6.054;2023-02-18T16:40:05;3.53;;;3.23;;
41627;SDS011;27321;50.816;6.054;2023-02-18T16:43:26;3.93;;;3.30;;
41627;SDS011;27321;50.816;6.054;2023-02-18T16:46:31;3.40;;;3.03;;
41627;SDS011;27321;50.816;6.054;2023-02-18T16:49:36;4.33;;;3.93;;
41627;SDS011;27321;50.816;6.054;2023-02-18T16:52:38;3.93;;;3.53;;
41627;SDS011;27321;50.816;6.054;2023-02-18T16:55:39;4.95;;;4.47;;
41627;SDS011;27321;50.816;6.054;2023-02-18T16:58:40;5.10;;;4.00;;
41627;SDS011;27321;50.816;6.054;2023-02-18T17:01:43;4.35;;;4.03;;
41627;SDS011;27321;50.816;6.054;2023-02-18T17:04:45;4.60;;;3.80;;
41627;SDS011;27321;50.816;6.054;2023-02-18T17:07:48;5.07;;;4.50;;
41627;SDS011;27321;50.816;6.054;2023-02-18T17:10:50;5.17;;;4.67;;
41627;SDS011;27321;50.816;6.054;2023-02-18T17:13:57;5.67;;;4.63;;
41627;SDS011;27321;50.816;6.054;2023-02-18T17:19:59;6.17;;;4.60;;
41627;SDS011;27321;50.816;6.054;2023-02-18T17:23:00;5.63;;;4.68;;
41627;SDS011;27321;50.816;6.054;2023-02-18T17:26:02;5.55;;;4.25;;
41627;SDS011;27321;50.816;6.054;2023-02-18T17:29:05;5.20;;;4.70;;
41627;SDS011;27321;50.816;6.054;2023-02-18T17:32:06;6.72;;;5.18;;
41627;SDS011;27321;50.816;6.054;2023-02-18T17:35:09;5.88;;;4.82;;
41627;SDS011;27321;50.816;6.054;2023-02-18T17:38:19;7.95;;;4.47;;
41627;SDS011;27321;50.816;6.054;2023-02-18T17:41:20;6.75;;;4.72;;
41627;SDS011;27321;50.816;6.054;2023-02-18T17:44:22;5.65;;;4.40;;
41627;SDS011;27321;50.816;6.054;2023-02-18T17:47:25;5.97;;;4.87;;
41627;SDS011;27321;50.816;6.054;2023-02-18T17:50:26;5.10;;;4.60;;
41627;SDS011;27321;50.816;6.054;2023-02-18T17:53:28;4.87;;;4.37;;
41627;SDS011;27321;50.816;6.054;2023-02-18T17:56:29;5.15;;;4.57;;
41627;SDS011;27321;50.816;6.054;2023-02-18T17:59:30;5.22;;;4.70;;
41627;SDS011;27321;50.816;6.054;2023-02-18T18:02:31;5.10;;;4.57;;
41627;SDS011;27321;50.816;6.054;2023-02-18T18:05:33;6.00;;;4.23;;
41627;SDS011;27321;50.816;6.054;2023-02-18T18:08:37;4.73;;;3.93;;
41627;SDS011;27321;50.816;6.054;2023-02-18T18:11:38;4.40;;;4.00;;
41627;SDS011;27321;50.816;6.054;2023-02-18T18:14:39;4.65;;;3.97;;
41627;SDS011;27321;50.816;6.054;2023-02-18T18:17:40;5.05;;;4.65;;
41627;SDS011;27321;50.816;6.054;2023-02-18T18:20:42;5.40;;;3.90;;
41627;SDS011;27321;50.816;6.054;2023-02-18T18:23:46;4.40;;;4.00;;
41627;SDS011;27321;50.816;6.054;2023-02-18T18:26:48;4.25;;;3.85;;
41627;SDS011;27321;50.816;6.054;2023-02-18T18:29:49;4.90;;;4.00;;
41627;SDS011;27321;50.816;6.054;2023-02-18T18:32:50;5.70;;;4.03;;
41627;SDS011;27321;50.816;6.054;2023-02-18T18:35:52;4.68;;;4.18;;
41627;SDS011;27321;50.816;6.054;2023-02-18T18:38:55;4.63;;;4.17;;
41627;SDS011;27321;50.816;6.054;2023-02-18T18:41:56;4.75;;;4.22;;
41627;SDS011;27321;50.816;6.054;2023-02-18T18:44:59;4.67;;;4.10;;
41627;SDS011;27321;50.816;6.054;2023-02-18T18:48:00;5.27;;;4.47;;
41627;SDS011;27321;50.816;6.054;2023-02-18T18:51:01;6.50;;;4.53;;
41627;SDS011;27321;50.816;6.054;2023-02-18T18:54:02;4.35;;;3.95;;
41627;SDS011;27321;50.816;6.054;2023-02-18T18:57:03;4.95;;;4.28;;
41627;SDS011;27321;50.816;6.054;2023-02-18T19:00:05;4.93;;;4.22;;
41627;SDS011;27321;50.816;6.054;2023-02-18T19:03:09;5.17;;;4.47;;
41627;SDS011;27321;50.816;6.054;2023-02-18T19:06:11;5.33;;;4.10;;
41627;SDS011;27321;50.816;6.054;2023-02-18T19:09:14;4.63;;;4.00;;
41627;SDS011;27321;50.816;6.054;2023-02-18T19:12:14;5.93;;;4.50;;
41627;SDS011;27321;50.816;6.054;2023-02-18T19:15:20;5.13;;;4.30;;
41627;SDS011;27321;50.816;6.054;2023-02-18T19:18:22;4.43;;;4.00;;
41627;SDS011;27321;50.816;6.054;2023-02-18T19:21:23;7.25;;;4.20;;
41627;SDS011;27321;50.816;6.054;2023-02-18T19:24:24;3.80;;;3.45;;
41627;SDS011;27321;50.816;6.054;2023-02-18T19:27:25;5.97;;;3.70;;
41627;SDS011;27321;50.816;6.054;2023-02-18T19:30:27;4.17;;;3.30;;
41627;SDS011;27321;50.816;6.054;2023-02-18T19:33:31;4.03;;;3.50;;
41627;SDS011;27321;50.816;6.054;2023-02-18T19:36:32;4.13;;;3.70;;
41627;SDS011;27321;50.816;6.054;2023-02-18T19:39:34;5.68;;;4.38;;
41627;SDS011;27321;50.816;6.054;2023-02-18T19:42:35;4.50;;;4.10;;
41627;SDS011;27321;50.816;6.054;2023-02-18T19:45:43;4.22;;;3.83;;
41627;SDS011;27321;50.816;6.054;2023-02-18T19:48:47;5.07;;;4.27;;
41627;SDS011;27321;50.816;6.054;2023-02-18T19:51:51;5.67;;;5.17;;
41627;SDS011;27321;50.816;6.054;2023-02-18T19:54:52;5.60;;;5.10;;
41627;SDS011;27321;50.816;6.054;2023-02-18T19:57:54;4.77;;;4.37;;
41627;SDS011;27321;50.816;6.054;2023-02-18T20:00:55;3.93;;;3.60;;
41627;SDS011;27321;50.816;6.054;2023-02-18T20:03:57;4.05;;;3.67;;
41627;SDS011;27321;50.816;6.054;2023-02-18T20:06:59;3.20;;;2.90;;
41627;SDS011;27321;50.816;6.054;2023-02-18T20:10:00;3.42;;;3.13;;
41627;SDS011;27321;50.816;6.054;2023-02-18T20:13:02;3.33;;;3.03;;
41627;SDS011;27321;50.816;6.054;2023-02-18T20:16:09;3.13;;;2.87;;
41627;SDS011;27321;50.816;6.054;2023-02-18T20:19:11;2.65;;;2.45;;
41627;SDS011;27321;50.816;6.054;2023-02-18T20:22:12;2.97;;;2.78;;
41627;SDS011;27321;50.816;6.054;2023-02-18T20:25:13;2.92;;;2.67;;
41627;SDS011;27321;50.816;6.054;2023-02-18T20:28:14;2.75;;;2.55;;
41627;SDS011;27321;50.816;6.054;2023-02-18T20:31:15;2.60;;;2.40;;
41627;SDS011;27321;50.816;6.054;2023-02-18T20:34:17;2.58;;;2.38;;
41627;SDS011;27321;50.816;6.054;2023-02-18T20:37:19;2.40;;;2.27;;
41627;SDS011;27321;50.816;6.054;2023-02-18T20:40:20;1.90;;;1.80;;
41627;SDS011;27321;50.816;6.054;2023-02-18T20:43:21;2.17;;;1.98;;
41627;SDS011;27321;50.816;6.054;2023-02-18T20:46:22;2.25;;;2.03;;
41627;SDS011;27321;50.816;6.054;2023-02-18T20:49:23;2.45;;;2.25;;
41627;SDS011;27321;50.816;6.054;2023-02-18T20:52:25;2.10;;;2.00;;
41627;SDS011;27321;50.816;6.054;2023-02-18T20:55:26;2.33;;;2.13;;
41627;SDS011;27321;50.816;6.054;2023-02-18T20:58:27;2.10;;;2.00;;
41627;SDS011;27321;50.816;6.054;2023-02-18T21:01:28;2.72;;;2.53;;
41627;SDS011;27321;50.816;6.054;2023-02-18T21:04:30;2.55;;;2.35;;
41627;SDS011;27321;50.816;6.054;2023-02-18T21:07:31;2.90;;;2.70;;
41627;SDS011;27321;50.816;6.054;2023-02-18T21:10:32;2.55;;;2.35;;
41627;SDS011;27321;50.816;6.054;2023-02-18T21:13:33;3.08;;;2.88;;
41627;SDS011;27321;50.816;6.054;2023-02-18T21:16:35;3.30;;;3.00;;
41627;SDS011;27321;50.816;6.054;2023-02-18T21:19:40;3.53;;;3.23;;